Time;durP1;ratioP1;P1;durP2;ratioP2;P2;SDS_P1;SDS_P2;PMS_P1;PMS_P2;Temp;Humidity;BMP_temperature;BMP_pressure;BME280_temperature;BME280_humidity;BME280_pressure;Samples;Min_cycle;Max_cycle;Signal;HPM_P1;HPM_P2
2022/10/06 00:00:00;;;;;;;5.60;3.00;;;13.80;12.10;;;;;;7382287;19;20454;-67
2022/10/06 00:02:30;;;;;;;4.28;2.95;;;13.80;12.10;;;;;;7365626;19;20035;-68
2022/10/06 00:04:59;;;;;;;7.47;3.95;;;13.80;12.90;;;;;;7364881;19;20602;-68
2022/10/06 00:07:29;;;;;;;5.20;3.17;;;13.80;12.90;;;;;;7362719;19;20019;-67
2022/10/06 00:09:59;;;;;;;4.57;3.50;;;13.80;12.80;;;;;;7360718;19;20035;-67
2022/10/06 00:12:29;;;;;;;7.18;3.30;;;13.80;13.40;;;;;;7365260;19;20017;-66
2022/10/06 00:15:01;;;;;;;7.63;3.35;;;13.70;13.90;;;;;;7386871;19;20014;-67
2022/10/06 00:17:31;;;;;;;4.00;2.65;;;13.70;14.00;;;;;;7360831;19;20019;-67
2022/10/06 00:20:01;;;;;;;7.75;3.60;;;13.70;15.00;;;;;;7358614;19;20348;-67
2022/10/06 00:22:35;;;;;;;6.60;4.07;;;13.60;15.80;;;;;;7364347;19;20017;-68
2022/10/06 00:25:06;;;;;;;6.47;3.78;;;13.70;15.60;;;;;;7364798;19;20770;-68
2022/10/06 00:27:37;;;;;;;5.85;3.40;;;13.60;15.70;;;;;;7361230;19;20522;-67
2022/10/06 00:30:12;;;;;;;8.13;3.80;;;13.60;16.50;;;;;;7382461;19;20018;-68
2022/10/06 00:32:42;;;;;;;9.23;4.20;;;13.70;15.80;;;;;;7367090;19;20570;-67
2022/10/06 00:35:12;;;;;;;7.95;3.88;;;13.60;16.10;;;;;;7363913;19;20007;-68
2022/10/06 00:37:41;;;;;;;6.57;3.70;;;13.50;17.50;;;;;;7363538;19;20018;-67
2022/10/06 00:40:12;;;;;;;7.88;3.85;;;13.40;17.50;;;;;;7359932;19;20010;-68
2022/10/06 00:42:54;;;;;;;11.90;3.53;;;13.40;18.90;;;;;;7364466;19;20015;-68
2022/10/06 00:45:35;;;;;;;7.63;3.80;;;13.30;19.70;;;;;;7367077;19;20015;-68
2022/10/06 00:48:10;;;;;;;7.50;3.88;;;13.30;20.50;;;;;;7384124;19;20014;-68
2022/10/06 00:50:40;;;;;;;8.43;4.07;;;13.20;21.00;;;;;;7358630;19;20035;-67
2022/10/06 00:53:11;;;;;;;5.78;4.15;;;13.20;21.70;;;;;;7366834;19;20011;-68
2022/10/06 00:55:41;;;;;;;8.57;4.20;;;13.10;22.40;;;;;;7366733;19;20011;-68
2022/10/06 00:58:11;;;;;;;5.13;3.83;;;13.10;23.60;;;;;;7363028;19;20030;-68
2022/10/06 01:00:45;;;;;;;5.53;3.80;;;13.10;23.40;;;;;;7359748;19;20011;-68
2022/10/06 01:03:20;;;;;;;5.60;3.60;;;13.10;23.40;;;;;;7365037;19;20020;-68
2022/10/06 01:05:52;;;;;;;6.47;3.58;;;13.10;24.20;;;;;;7388421;19;20033;-68
2022/10/06 01:08:24;;;;;;;5.10;3.10;;;13.10;24.20;;;;;;7364098;19;20727;-68
2022/10/06 01:10:55;;;;;;;9.15;3.60;;;13.10;24.10;;;;;;7357811;19;20670;-68
2022/10/06 01:13:26;;;;;;;8.20;3.55;;;13.10;23.40;;;;;;7364086;19;20021;-68
2022/10/06 01:16:05;;;;;;;5.10;3.30;;;13.10;22.90;;;;;;7365210;19;20006;-68
2022/10/06 01:18:36;;;;;;;6.45;3.42;;;13.10;22.00;;;;;;7363423;19;20093;-68
2022/10/06 01:21:11;;;;;;;6.47;3.65;;;13.10;21.90;;;;;;7378624;19;20036;-68
2022/10/06 01:23:44;;;;;;;10.13;3.20;;;13.20;20.70;;;;;;7363731;19;20031;-68
2022/10/06 01:26:16;;;;;;;3.28;2.88;;;13.30;19.20;;;;;;7363473;19;20017;-68
2022/10/06 01:28:46;;;;;;;6.97;3.10;;;13.30;17.80;;;;;;7365397;19;20014;-68
2022/10/06 01:31:16;;;;;;;11.02;3.47;;;13.50;16.70;;;;;;7358649;19;20355;-68
2022/10/06 01:33:46;;;;;;;4.53;3.10;;;13.40;16.40;;;;;;7364204;19;20014;-68
2022/10/06 01:36:16;;;;;;;3.85;3.03;;;13.30;17.30;;;;;;7361825;19;20015;-69
2022/10/06 01:38:48;;;;;;;5.20;2.70;;;13.30;17.30;;;;;;7386995;19;20026;-68
2022/10/06 01:41:18;;;;;;;4.13;2.50;;;13.30;17.90;;;;;;7357053;19;20409;-68
2022/10/06 01:43:48;;;;;;;5.25;3.05;;;13.40;16.70;;;;;;7363520;19;20006;-68
2022/10/06 01:46:18;;;;;;;5.25;2.75;;;13.40;16.20;;;;;;7362950;19;20030;-68
2022/10/06 01:48:47;;;;;;;4.05;2.90;;;13.50;15.90;;;;;;7364591;19;20009;-68
2022/10/06 01:51:17;;;;;;;4.63;2.70;;;13.50;15.60;;;;;;7356749;19;20707;-68
2022/10/06 01:53:50;;;;;;;6.10;2.67;;;13.40;15.80;;;;;;7385771;19;20030;-69
2022/10/06 01:56:20;;;;;;;4.53;2.65;;;13.40;15.90;;;;;;7360030;19;20011;-68
2022/10/06 01:58:50;;;;;;;4.68;2.85;;;13.40;16.30;;;;;;7365451;19;20825;-68
2022/10/06 02:01:20;;;;;;;5.72;2.53;;;13.50;15.50;;;;;;7358551;19;20006;-68
2022/10/06 02:03:50;;;;;;;5.07;2.80;;;13.60;14.40;;;;;;7363388;19;20033;-68
2022/10/06 02:06:20;;;;;;;3.67;2.40;;;13.80;12.90;;;;;;7363223;19;20010;-68
2022/10/06 02:08:52;;;;;;;6.60;2.53;;;13.80;11.40;;;;;;7387038;19;20368;-68
2022/10/06 02:11:22;;;;;;;2.35;2.10;;;13.80;11.40;;;;;;7355742;19;20006;-68
2022/10/06 02:13:52;;;;;;;7.00;3.28;;;13.80;10.90;;;;;;7363755;19;20006;-68
2022/10/06 02:16:22;;;;;;;3.97;2.40;;;13.80;10.80;;;;;;7362770;19;20019;-68
2022/10/06 02:18:53;;;;;;;7.82;2.92;;;13.90;10.40;;;;;;7371403;19;20011;-68
2022/10/06 02:21:24;;;;;;;6.50;2.67;;;13.80;10.30;;;;;;7365148;19;20011;-68
2022/10/06 02:23:57;;;;;;;5.53;2.80;;;13.80;10.50;;;;;;7392093;19;20096;-68
2022/10/06 02:26:26;;;;;;;5.25;2.50;;;13.70;11.60;;;;;;7366683;19;20014;-68
2022/10/06 02:28:56;;;;;;;8.18;2.90;;;13.60;12.70;;;;;;7371576;19;20492;-68
2022/10/06 02:31:26;;;;;;;6.43;2.97;;;13.60;12.00;;;;;;7387726;19;20014;-68
2022/10/06 02:33:57;;;;;;;6.60;2.97;;;13.50;13.80;;;;;;7392139;19;20384;-68
2022/10/06 02:36:27;;;;;;;5.90;3.00;;;13.40;14.50;;;;;;7388852;19;20014;-68
2022/10/06 02:38:59;;;;;;;3.97;2.60;;;13.30;14.50;;;;;;7395630;19;20031;-68
2022/10/06 02:41:29;;;;;;;7.10;2.92;;;13.30;15.20;;;;;;7386605;19;20018;-68
2022/10/06 02:43:59;;;;;;;4.03;3.15;;;13.30;15.20;;;;;;7392940;19;20018;-68
2022/10/06 02:46:30;;;;;;;5.05;3.08;;;13.20;16.80;;;;;;7390311;19;20015;-68
2022/10/06 02:49:00;;;;;;;3.72;2.72;;;13.10;17.00;;;;;;7392909;19;20022;-68
2022/10/06 02:51:32;;;;;;;4.28;2.80;;;13.20;16.30;;;;;;7386266;19;20014;-68
2022/10/06 02:54:05;;;;;;;5.80;2.92;;;13.10;16.30;;;;;;7393219;19;20007;-68
2022/10/06 02:56:36;;;;;;;11.10;3.53;;;13.10;17.20;;;;;;7387823;19;20057;-68
2022/10/06 02:59:06;;;;;;;9.30;3.17;;;13.10;17.20;;;;;;7395085;19;20023;-68
2022/10/06 03:01:36;;;;;;;8.52;3.03;;;13.10;17.20;;;;;;7384659;19;20425;-68
2022/10/06 03:04:06;;;;;;;8.73;3.05;;;13.20;17.20;;;;;;7391873;19;20353;-68
2022/10/06 03:06:36;;;;;;;4.00;2.80;;;13.30;16.80;;;;;;7389053;19;20984;-68
2022/10/06 03:09:09;;;;;;;6.00;3.40;;;13.30;16.50;;;;;;7394109;19;20022;-68
2022/10/06 03:11:41;;;;;;;7.35;3.28;;;13.40;15.90;;;;;;7387541;19;20286;-68
2022/10/06 03:14:11;;;;;;;6.85;3.17;;;13.30;15.40;;;;;;7392340;19;20019;-68
2022/10/06 03:16:45;;;;;;;9.25;3.17;;;13.30;16.10;;;;;;7387001;19;20015;-67
2022/10/06 03:19:15;;;;;;;10.25;4.00;;;13.30;16.60;;;;;;7391025;19;20403;-68
2022/10/06 03:21:45;;;;;;;8.30;3.08;;;13.10;17.20;;;;;;7387026;19;20478;-67
2022/10/06 03:24:18;;;;;;;7.03;3.38;;;13.10;18.50;;;;;;7390736;19;20355;-68
2022/10/06 03:26:49;;;;;;;4.85;3.28;;;13.00;19.40;;;;;;7388589;19;20406;-68
2022/10/06 03:29:19;;;;;;;6.20;3.10;;;13.00;19.50;;;;;;7392950;19;20021;-68
2022/10/06 03:31:48;;;;;;;5.30;3.30;;;12.90;20.70;;;;;;7386891;19;20021;-68
2022/10/06 03:34:18;;;;;;;5.38;3.20;;;12.80;21.50;;;;;;7391562;19;20031;-67
2022/10/06 03:36:48;;;;;;;6.97;3.65;;;12.80;22.00;;;;;;7388286;19;20017;-67
2022/10/06 03:39:20;;;;;;;5.18;3.67;;;12.90;22.80;;;;;;7391825;19;20014;-67
2022/10/06 03:41:50;;;;;;;7.50;3.80;;;12.90;24.10;;;;;;7387604;19;20018;-67
2022/10/06 03:44:20;;;;;;;8.20;3.33;;;13.10;22.90;;;;;;7391152;19;20009;-67
2022/10/06 03:46:50;;;;;;;11.88;3.78;;;13.20;21.70;;;;;;7387088;19;20021;-67
2022/10/06 03:49:20;;;;;;;6.40;3.38;;;13.30;21.50;;;;;;7391301;19;20014;-67
2022/10/06 03:51:50;;;;;;;6.63;3.38;;;13.40;20.60;;;;;;7386801;19;20018;-67
2022/10/06 03:54:22;;;;;;;9.40;3.25;;;13.60;19.30;;;;;;7390833;19;20021;-67
2022/10/06 03:56:52;;;;;;;5.10;3.50;;;13.60;19.30;;;;;;7387080;19;20017;-68
2022/10/06 03:59:22;;;;;;;5.75;3.25;;;13.80;17.70;;;;;;7391707;19;20728;-68
2022/10/06 04:01:51;;;;;;;5.65;2.97;;;13.90;17.70;;;;;;7383710;19;20021;-68
2022/10/06 04:04:21;;;;;;;5.50;3.30;;;14.20;16.30;;;;;;7390608;19;20013;-68
2022/10/06 04:06:51;;;;;;;8.30;3.20;;;14.30;15.20;;;;;;7384643;19;20038;-69
2022/10/06 04:09:24;;;;;;;4.65;3.10;;;14.30;15.60;;;;;;7390255;19;20018;-69
2022/10/06 04:11:53;;;;;;;7.22;3.40;;;14.40;15.30;;;;;;7386455;19;20015;-69
2022/10/06 04:14:23;;;;;;;4.78;3.20;;;14.40;16.00;;;;;;7390698;19;20021;-69
2022/10/06 04:16:53;;;;;;;5.65;2.95;;;14.40;15.70;;;;;;7385883;19;20010;-68
2022/10/06 04:19:23;;;;;;;5.63;2.72;;;14.40;16.00;;;;;;7390344;19;20342;-68
2022/10/06 04:21:53;;;;;;;6.18;3.28;;;14.50;16.50;;;;;;7386031;19;20014;-68
2022/10/06 04:24:25;;;;;;;9.10;3.60;;;14.50;17.70;;;;;;7389577;19;20011;-68
2022/10/06 04:27:26;;;;;;;5.68;3.42;;;14.50;18.10;;;;;;7384207;19;20048;-68
2022/10/06 04:29:45;;;;;;;6.97;3.75;;;14.40;19.00;;;;;;7385720;19;20505;-68
2022/10/06 04:32:15;;;;;;;6.88;3.35;;;14.40;19.90;;;;;;7387963;19;20023;-67
2022/10/06 04:34:45;;;;;;;6.90;4.13;;;14.50;20.40;;;;;;7389442;19;20010;-67
2022/10/06 04:37:15;;;;;;;7.97;4.95;;;14.50;20.70;;;;;;7385041;19;20015;-67
2022/10/06 04:39:47;;;;;;;6.35;3.78;;;14.50;21.20;;;;;;7384275;19;20011;-68
2022/10/06 04:42:17;;;;;;;8.65;3.83;;;14.60;22.00;;;;;;7389779;19;20030;-67
2022/10/06 04:44:47;;;;;;;9.85;3.92;;;14.60;21.90;;;;;;7389931;19;20014;-68
2022/10/06 04:47:17;;;;;;;7.10;4.03;;;14.60;22.60;;;;;;7385129;19;20038;-67
2022/10/06 04:49:46;;;;;;;11.65;4.20;;;14.60;23.30;;;;;;7386228;19;20014;-68
2022/10/06 04:52:16;;;;;;;7.55;4.20;;;14.60;23.80;;;;;;7388057;19;20014;-68
2022/10/06 04:54:48;;;;;;;10.43;4.90;;;14.60;24.20;;;;;;7388129;19;20018;-67
2022/10/06 04:57:18;;;;;;;9.18;4.07;;;14.60;25.10;;;;;;7386609;19;20021;-67
2022/10/06 05:02:37;;;;;;;10.13;4.35;;;14.70;25.30;;;;;;7385469;19;20031;-68
2022/10/06 05:05:08;;;;;;;8.75;4.82;;;14.70;25.80;;;;;;7388450;19;20497;-68
2022/10/06 05:07:38;;;;;;;8.57;4.35;;;14.70;26.20;;;;;;7383502;19;20018;-68
2022/10/06 05:10:10;;;;;;;10.48;4.40;;;14.70;25.90;;;;;;7388457;19;20727;-68
2022/10/06 05:12:40;;;;;;;10.32;5.28;;;14.70;26.50;;;;;;7384697;19;20350;-68
2022/10/06 05:15:11;;;;;;;7.60;4.63;;;14.70;26.50;;;;;;7386867;19;20007;-68
2022/10/06 05:17:41;;;;;;;7.10;4.50;;;14.80;26.00;;;;;;7382509;19;20026;-67
2022/10/06 05:20:12;;;;;;;6.55;4.30;;;14.80;25.90;;;;;;7386021;19;20352;-68
2022/10/06 05:22:42;;;;;;;12.50;4.65;;;14.80;25.90;;;;;;7383668;19;20018;-67
2022/10/06 05:25:14;;;;;;;7.38;4.15;;;14.80;26.30;;;;;;7387756;19;20038;-68
2022/10/06 05:27:44;;;;;;;8.57;4.20;;;14.80;26.00;;;;;;7383407;19;20006;-68
2022/10/06 05:30:14;;;;;;;7.93;4.05;;;14.80;25.30;;;;;;7386144;19;20018;-68
2022/10/06 05:32:49;;;;;;;10.10;4.05;;;14.80;25.40;;;;;;7383888;19;20028;-68
2022/10/06 05:35:20;;;;;;;6.55;4.47;;;14.80;25.40;;;;;;7387502;19;20010;-68
2022/10/06 05:37:49;;;;;;;13.98;4.70;;;14.80;25.50;;;;;;7381922;19;20020;-68
2022/10/06 05:40:23;;;;;;;10.45;4.20;;;14.90;25.50;;;;;;7386078;19;20014;-68
2022/10/06 05:42:56;;;;;;;10.18;4.63;;;14.80;25.90;;;;;;7383513;19;20496;-69
2022/10/06 05:45:26;;;;;;;9.57;4.78;;;14.90;26.20;;;;;;7384557;19;20010;-68
2022/10/06 05:47:56;;;;;;;9.68;4.80;;;14.90;26.30;;;;;;7382945;19;20022;-68
2022/10/06 05:50:26;;;;;;;12.90;4.63;;;14.90;26.40;;;;;;7385002;19;20030;-68
2022/10/06 05:52:56;;;;;;;9.27;3.97;;;14.90;26.40;;;;;;7382138;19;20502;-67
2022/10/06 05:55:30;;;;;;;8.23;3.75;;;14.90;26.20;;;;;;7387786;19;20014;-68
2022/10/06 05:58:00;;;;;;;;;;;15.00;26.40;;;;;;7382744;19;20018;-68
2022/10/06 06:00:30;;;;;;;7.53;4.70;;;14.90;26.10;;;;;;7384576;19;19931;-68
2022/10/06 06:03:01;;;;;;;9.55;4.63;;;15.00;26.20;;;;;;7381254;19;20014;-68
2022/10/06 06:05:30;;;;;;;7.10;4.60;;;15.10;25.80;;;;;;7385890;19;20018;-68
2022/10/06 06:08:00;;;;;;;9.50;5.03;;;15.10;26.10;;;;;;7381922;19;20477;-68
2022/10/06 06:10:33;;;;;;;7.55;4.57;;;15.20;26.00;;;;;;7385412;19;20534;-68
2022/10/06 06:13:03;;;;;;;6.73;4.97;;;15.30;25.90;;;;;;7357208;19;20015;-69
2022/10/06 06:18:15;;;;;;;7.88;5.38;;;15.30;26.10;;;;;;7359689;19;20029;-68
2022/10/06 06:20:45;;;;;;;10.05;4.82;;;15.30;26.20;;;;;;7380637;19;20036;-68
2022/10/06 06:23:15;;;;;;;6.60;4.45;;;15.30;25.70;;;;;;7361394;19;20015;-68
2022/10/06 06:25:59;;;;;;;6.35;4.30;;;15.40;25.80;;;;;;7363224;19;20010;-69
2022/10/06 06:28:32;;;;;;;7.88;4.82;;;15.40;25.60;;;;;;7361225;19;20014;-68
2022/10/06 06:31:07;;;;;;;6.88;4.63;;;15.50;25.00;;;;;;7356212;19;20457;-68
2022/10/06 06:33:39;;;;;;;10.32;4.47;;;15.50;24.80;;;;;;7362076;19;20014;-68
2022/10/06 06:36:14;;;;;;;11.18;4.25;;;15.50;24.80;;;;;;7384776;19;20039;-68
2022/10/06 06:38:44;;;;;;;12.93;4.30;;;15.50;24.80;;;;;;7360670;19;20015;-68
2022/10/06 06:41:19;;;;;;;11.82;4.00;;;15.50;24.60;;;;;;7357086;19;20010;-68
2022/10/06 06:43:49;;;;;;;11.32;4.32;;;15.50;25.00;;;;;;7360319;19;20106;-68
2022/10/06 06:46:22;;;;;;;10.68;4.80;;;15.50;25.10;;;;;;7359346;19;20010;-68
2022/10/06 06:48:54;;;;;;;10.73;5.22;;;15.60;25.70;;;;;;7362377;19;20006;-68
2022/10/06 06:51:24;;;;;;;9.02;4.70;;;15.60;25.70;;;;;;7356740;19;20014;-68
2022/10/06 06:53:54;;;;;;;8.98;4.22;;;15.60;25.50;;;;;;7383710;19;20014;-69
2022/10/06 06:56:27;;;;;;;12.30;4.75;;;15.60;25.90;;;;;;7358720;19;20021;-68
2022/10/06 06:58:57;;;;;;;9.95;4.85;;;15.60;25.90;;;;;;7361551;19;20428;-68
2022/10/06 07:01:26;;;;;;;8.00;4.78;;;15.60;25.80;;;;;;7357397;19;20010;-68
2022/10/06 07:03:58;;;;;;;10.63;4.50;;;15.60;25.90;;;;;;7368685;19;20017;-68
2022/10/06 07:06:30;;;;;;;10.52;4.30;;;15.60;26.30;;;;;;7365642;19;20022;-68
2022/10/06 07:09:01;;;;;;;6.65;4.15;;;15.50;25.80;;;;;;7390935;19;20021;-68
2022/10/06 07:11:35;;;;;;;5.95;3.90;;;15.50;26.10;;;;;;7363759;19;20006;-68
2022/10/06 07:14:07;;;;;;;7.15;4.43;;;15.50;26.20;;;;;;7367155;19;20003;-68
2022/10/06 07:25:13;;;;;;;8.35;3.70;;;15.50;25.80;;;;;;7367753;19;20013;-68
2022/10/06 07:27:50;;;;;;;4.82;3.17;;;15.50;25.60;;;;;;7365497;19;20006;-70
2022/10/06 07:30:22;;;;;;;7.55;3.80;;;15.50;24.80;;;;;;7367293;19;20020;-68
2022/10/06 07:32:53;;;;;;;8.77;4.03;;;15.40;25.60;;;;;;7386391;19;20010;-68
2022/10/06 07:35:25;;;;;;;10.18;3.72;;;15.40;25.00;;;;;;7365940;19;20484;-68
2022/10/06 07:37:56;;;;;;;8.02;3.72;;;15.50;24.30;;;;;;7364639;19;20017;-68
2022/10/06 07:40:26;;;;;;;4.90;3.28;;;15.50;24.20;;;;;;7367480;19;20064;-68
2022/10/06 07:42:59;;;;;;;6.32;3.47;;;15.50;25.00;;;;;;7362677;19;20039;-68
2022/10/06 07:45:44;;;;;;;5.63;3.08;;;15.50;22.60;;;;;;7366216;19;20023;-67
2022/10/06 07:48:16;;;;;;;6.68;3.15;;;15.60;21.50;;;;;;7365578;19;20095;-69
2022/10/06 07:50:48;;;;;;;6.22;3.08;;;15.60;18.90;;;;;;7384757;19;20340;-68
2022/10/06 07:53:18;;;;;;;9.25;2.85;;;15.60;17.80;;;;;;7364930;19;20018;-68
2022/10/06 07:55:49;;;;;;;6.50;2.70;;;15.70;16.90;;;;;;7366676;19;20021;-68
2022/10/06 07:58:23;;;;;;;6.50;2.55;;;15.70;16.10;;;;;;7362460;19;20015;-69
2022/10/06 08:00:54;;;;;;;9.77;2.88;;;15.70;13.90;;;;;;7363710;19;20007;-68
2022/10/06 08:03:24;;;;;;;3.58;2.03;;;15.80;13.50;;;;;;7367002;19;20502;-68
2022/10/06 08:06:00;;;;;;;3.28;2.03;;;15.80;13.10;;;;;;7388201;19;20020;-68
2022/10/06 08:08:35;;;;;;;6.28;2.67;;;15.80;12.00;;;;;;7364917;19;20015;-68
2022/10/06 08:11:07;;;;;;;4.18;2.17;;;15.90;12.20;;;;;;7361142;19;20033;-68
2022/10/06 08:13:42;;;;;;;6.30;2.45;;;15.80;11.70;;;;;;7362627;19;20006;-69
2022/10/06 08:16:15;;;;;;;6.65;2.72;;;15.90;11.80;;;;;;7364990;19;20006;-68
2022/10/06 08:18:49;;;;;;;10.32;2.63;;;15.90;11.80;;;;;;7362256;19;20018;-68
2022/10/06 08:21:21;;;;;;;5.85;2.60;;;15.90;11.90;;;;;;7359265;19;20475;-68
2022/10/06 08:23:52;;;;;;;9.05;2.95;;;15.90;11.80;;;;;;7385165;19;20046;-68
2022/10/06 08:26:24;;;;;;;7.03;2.80;;;15.80;13.40;;;;;;7361782;19;20358;-68
2022/10/06 08:28:59;;;;;;;5.60;2.53;;;15.70;12.50;;;;;;7364082;19;20007;-68
2022/10/06 08:31:29;;;;;;;7.55;2.65;;;15.70;12.60;;;;;;7358966;19;20078;-69
2022/10/06 08:34:00;;;;;;;8.90;2.47;;;15.80;12.40;;;;;;7364598;19;20031;-69
2022/10/06 08:36:30;;;;;;;9.00;3.60;;;15.90;12.40;;;;;;7362170;19;20478;-69
2022/10/06 08:39:01;;;;;;;7.97;2.30;;;16.00;11.90;;;;;;7385373;19;20025;-69
2022/10/06 08:41:41;;;;;;;4.88;2.25;;;15.90;8.50;;;;;;7361679;19;20482;-69
2022/10/06 08:44:29;;;;;;;8.63;2.20;;;15.90;9.50;;;;;;7360789;19;20014;-68
2022/10/06 08:47:02;;;;;;;6.10;2.10;;;16.00;8.90;;;;;;7359503;19;20103;-69
2022/10/06 08:49:38;;;;;;;5.75;2.30;;;16.00;6.60;;;;;;7361357;19;21068;-69
2022/10/06 08:52:21;;;;;;;9.00;2.22;;;16.20;7.50;;;;;;7361199;19;20490;-69
2022/10/06 08:54:57;;;;;;;5.07;1.73;;;16.20;6.70;;;;;;7362854;19;20122;-68
2022/10/06 08:57:34;;;;;;;8.88;2.00;;;16.20;4.50;;;;;;7358148;19;20011;-68
2022/10/06 09:00:13;;;;;;;9.57;2.83;;;16.30;3.60;;;;;;7383484;19;20025;-69
2022/10/06 09:02:52;;;;;;;6.05;2.08;;;16.50;3.30;;;;;;7360712;19;20066;-69
2022/10/06 09:05:27;;;;;;;5.68;1.80;;;16.60;1.60;;;;;;7360335;19;20022;-69
2022/10/06 09:08:07;;;;;;;5.18;1.70;;;16.40;2.40;;;;;;7360637;19;20022;-69
2022/10/06 09:10:45;;;;;;;6.75;2.30;;;16.30;2.00;;;;;;7363712;19;20011;-69
2022/10/06 09:13:19;;;;;;;7.65;2.38;;;16.20;2.90;;;;;;7358281;19;20006;-68
2022/10/06 09:15:58;;;;;;;6.47;2.15;;;16.30;1.10;;;;;;7361599;19;20014;-68
2022/10/06 09:18:34;;;;;;;5.65;2.05;;;16.40;1.00;;;;;;7360774;19;20043;-69
2022/10/06 09:21:31;;;;;;;5.03;1.92;;;16.50;1.00;;;;;;7357988;19;20720;-69
2022/10/06 09:24:07;;;;;;;5.72;1.80;;;16.70;1.00;;;;;;7383752;19;20010;-69
2022/10/06 09:26:37;;;;;;;4.10;1.73;;;16.70;1.00;;;;;;7356966;19;20014;-68
2022/10/06 09:29:07;;;;;;;7.82;1.70;;;16.80;1.00;;;;;;7363304;19;20022;-68
2022/10/06 09:31:43;;;;;;;9.10;2.30;;;17.00;1.00;;;;;;7358263;19;20014;-69
2022/10/06 09:34:23;;;;;;;4.53;1.70;;;17.00;1.00;;;;;;7361222;19;20987;-69
2022/10/06 09:37:01;;;;;;;2.90;2.15;;;17.10;1.00;;;;;;7358944;19;20442;-69
2022/10/06 09:39:35;;;;;;;4.35;1.50;;;17.00;1.00;;;;;;7362939;19;20040;-69
2022/10/06 09:42:09;;;;;;;5.85;1.30;;;17.00;1.00;;;;;;7381906;19;20010;-68
2022/10/06 09:44:49;;;;;;;2.88;1.15;;;16.90;1.00;;;;;;7363518;19;20034;-68
2022/10/06 09:47:37;;;;;;;7.43;2.10;;;17.00;1.00;;;;;;7358480;19;20029;-68
2022/10/06 09:50:19;;;;;;;5.05;1.40;;;17.30;1.00;;;;;;7361988;19;20011;-69
2022/10/06 09:53:15;;;;;;;6.05;1.45;;;17.50;1.00;;;;;;7358061;19;20018;-69
2022/10/06 09:55:54;;;;;;;6.72;1.60;;;16.70;1.00;;;;;;7361408;19;20089;-69
2022/10/06 09:58:33;;;;;;;5.18;2.10;;;16.90;1.00;;;;;;7358133;19;20006;-68
2022/10/06 10:01:04;;;;;;;4.22;2.05;;;17.10;1.00;;;;;;7360017;19;20018;-69
2022/10/06 10:03:51;;;;;;;5.90;1.40;;;17.30;1.00;;;;;;7360553;19;20014;-70
2022/10/06 10:06:41;;;;;;;5.72;2.05;;;17.30;1.00;;;;;;7357604;19;20043;-68
2022/10/06 10:09:26;;;;;;;4.72;1.60;;;16.90;1.00;;;;;;7381836;19;20022;-69
2022/10/06 10:12:26;;;;;;;6.18;1.92;;;17.00;1.00;;;;;;7357716;19;20671;-68
2022/10/06 10:15:00;;;;;;;7.20;1.50;;;17.40;1.00;;;;;;7360142;19;20094;-68
2022/10/06 10:17:44;;;;;;;3.83;1.98;;;17.60;1.00;;;;;;7356416;19;20017;-68
2022/10/06 10:20:33;;;;;;;6.20;1.70;;;17.00;1.00;;;;;;7357896;19;20478;-69
2022/10/06 10:23:07;;;;;;;7.05;2.08;;;17.50;1.00;;;;;;7357777;19;20010;-68
2022/10/06 10:25:54;;;;;;;4.75;1.60;;;17.80;1.00;;;;;;7360917;19;20040;-69
2022/10/06 10:28:36;;;;;;;7.68;1.77;;;17.70;1.00;;;;;;7359053;19;20011;-70
2022/10/06 10:31:13;;;;;;;4.63;1.50;;;18.20;1.00;;;;;;7359376;19;20077;-70
2022/10/06 10:33:47;;;;;;;6.22;1.70;;;18.30;1.00;;;;;;7360724;19;20505;-68
2022/10/06 10:36:49;;;;;;;4.93;1.60;;;18.70;1.00;;;;;;7359618;19;20022;-69
2022/10/06 10:39:27;;;;;;;3.75;1.40;;;18.00;1.00;;;;;;7366987;19;20346;-68
2022/10/06 10:42:01;;;;;;;10.85;1.58;;;17.90;1.00;;;;;;7385795;19;20025;-69
2022/10/06 10:44:36;;;;;;;4.30;1.38;;;17.70;1.00;;;;;;7367560;19;20011;-69
2022/10/06 10:47:18;;;;;;;6.63;1.40;;;17.50;1.00;;;;;;7363869;19;20014;-68
2022/10/06 10:49:53;;;;;;;7.40;1.67;;;17.70;1.00;;;;;;7364089;19;20010;-69
2022/10/06 10:52:30;;;;;;;2.65;1.50;;;18.00;1.00;;;;;;7363887;19;20474;-69
2022/10/06 10:55:13;;;;;;;8.10;1.60;;;18.30;1.00;;;;;;7366848;19;20012;-69
2022/10/06 10:57:44;;;;;;;6.13;1.50;;;18.80;1.00;;;;;;7363781;19;20017;-69
2022/10/06 11:00:21;;;;;;;5.78;1.70;;;18.60;1.00;;;;;;7362568;19;20014;-68
2022/10/06 11:02:54;;;;;;;4.97;1.70;;;18.40;1.00;;;;;;7381331;19;20014;-69
2022/10/06 11:05:39;;;;;;;6.13;1.48;;;18.80;1.00;;;;;;7354579;19;20074;-69
2022/10/06 11:08:17;;;;;;;5.38;1.20;;;18.60;1.00;;;;;;7360882;19;20030;-69
2022/10/06 11:10:51;;;;;;;3.97;1.65;;;18.30;1.00;;;;;;7367070;19;20021;-69
2022/10/06 11:13:28;;;;;;;4.38;1.50;;;17.90;1.00;;;;;;7360797;19;20006;-69
2022/10/06 11:16:13;;;;;;;4.75;1.50;;;17.80;1.00;;;;;;7368123;19;20474;-70
2022/10/06 11:19:04;;;;;;;8.77;1.88;;;17.90;1.00;;;;;;7359861;19;20010;-69
2022/10/06 11:21:59;;;;;;;4.13;1.92;;;18.00;1.00;;;;;;7359655;19;20492;-68
2022/10/06 11:24:44;;;;;;;6.20;1.83;;;18.00;1.00;;;;;;7367868;19;20044;-68
2022/10/06 11:27:33;;;;;;;5.78;1.73;;;17.90;1.00;;;;;;7364267;19;20311;-68
2022/10/06 11:30:07;;;;;;;4.53;1.50;;;18.50;1.00;;;;;;7388919;19;20037;-68
2022/10/06 11:32:46;;;;;;;5.53;1.35;;;18.80;1.00;;;;;;7354766;19;20526;-68
2022/10/06 11:35:24;;;;;;;10.88;1.83;;;18.30;1.00;;;;;;7357754;19;20042;-68
2022/10/06 11:38:01;;;;;;;7.50;1.50;;;18.90;1.00;;;;;;7355186;19;20017;-67
2022/10/06 11:40:50;;;;;;;3.72;1.50;;;18.10;1.00;;;;;;7353620;19;20015;-67
2022/10/06 11:43:33;;;;;;;4.95;1.85;;;18.20;1.00;;;;;;7351067;19;20013;-68
2022/10/06 11:46:09;;;;;;;5.80;1.90;;;18.30;1.00;;;;;;7355108;19;20026;-68
2022/10/06 11:48:39;;;;;;;3.15;1.27;;;18.20;1.00;;;;;;7353200;19;20010;-67
2022/10/06 11:51:31;;;;;;;5.45;2.00;;;18.30;1.00;;;;;;7374151;19;20026;-67
2022/10/06 11:54:01;;;;;;;4.60;1.77;;;17.70;1.00;;;;;;7355562;19;20022;-67
2022/10/06 11:56:42;;;;;;;5.68;1.60;;;17.50;1.00;;;;;;7350092;19;20070;-66
2022/10/06 11:59:30;;;;;;;4.03;1.60;;;17.80;1.00;;;;;;7356040;19;20541;-67
2022/10/06 12:02:02;;;;;;;6.35;1.45;;;18.30;1.00;;;;;;7348759;19;20018;-67
2022/10/06 12:04:32;;;;;;;5.82;1.75;;;18.40;1.00;;;;;;7344498;19;20034;-67
2022/10/06 12:07:06;;;;;;;6.90;1.75;;;18.10;1.00;;;;;;7340471;19;20466;-67
2022/10/06 12:09:53;;;;;;;;;;;18.30;1.00;;;;;;7350425;19;20017;-67
2022/10/06 12:13:08;;;;;;;4.75;1.35;;;18.40;1.00;;;;;;7352141;19;20339;-68
2022/10/06 12:16:27;;;;;;;8.50;1.83;;;18.50;1.00;;;;;;7350955;19;20015;-67
2022/10/06 12:19:23;;;;;;;4.28;1.48;;;17.90;1.00;;;;;;7356232;19;20051;-68
2022/10/06 12:22:02;;;;;;;7.50;1.88;;;18.10;1.00;;;;;;7351102;19;20360;-66
2022/10/06 12:24:41;;;;;;;7.15;1.45;;;18.10;1.00;;;;;;7356010;19;20019;-67
2022/10/06 12:27:32;;;;;;;5.03;1.45;;;18.00;1.00;;;;;;7374245;19;20010;-67
2022/10/06 12:30:18;;;;;;;11.80;1.75;;;18.10;1.00;;;;;;7355508;19;20031;-68
2022/10/06 12:32:53;;;;;;;8.52;2.42;;;18.20;1.00;;;;;;7350719;19;20534;-68
2022/10/06 12:35:30;;;;;;;4.00;1.42;;;18.20;1.00;;;;;;7355275;19;20069;-68
2022/10/06 12:38:03;;;;;;;6.35;1.50;;;18.30;1.00;;;;;;7354022;19;20214;-68
2022/10/06 12:40:48;;;;;;;8.35;2.08;;;18.00;1.00;;;;;;7353481;19;20018;-68
2022/10/06 12:43:45;;;;;;;4.75;1.30;;;18.10;1.00;;;;;;7351133;19;20006;-67
2022/10/06 12:46:22;;;;;;;4.78;1.30;;;18.40;1.00;;;;;;7354045;19;20010;-68
2022/10/06 12:49:05;;;;;;;12.75;2.05;;;18.30;1.00;;;;;;7356755;19;20035;-67
2022/10/06 12:51:37;;;;;;;5.45;1.77;;;18.60;1.00;;;;;;7352143;19;20015;-67
2022/10/06 12:54:18;;;;;;;5.90;1.60;;;18.70;1.00;;;;;;7376533;19;20612;-66
2022/10/06 12:56:58;;;;;;;6.43;1.63;;;18.80;1.00;;;;;;7350239;19;20006;-68
2022/10/06 12:59:30;;;;;;;8.68;2.13;;;18.60;1.00;;;;;;7350613;19;20062;-67
2022/10/06 13:02:09;;;;;;;7.80;1.80;;;18.50;1.00;;;;;;7348557;19;20022;-67
2022/10/06 13:04:42;;;;;;;7.45;1.33;;;18.90;1.00;;;;;;7354973;19;20003;-67
2022/10/06 13:07:17;;;;;;;7.60;1.63;;;18.80;1.00;;;;;;7352378;19;20010;-68
2022/10/06 13:09:49;;;;;;;10.18;1.73;;;18.80;1.00;;;;;;7353508;19;20014;-68
2022/10/06 13:12:25;;;;;;;4.55;1.17;;;18.60;1.00;;;;;;7351437;19;20466;-67
2022/10/06 13:15:17;;;;;;;4.40;1.60;;;18.70;1.00;;;;;;7374335;19;20616;-67
2022/10/06 13:17:52;;;;;;;8.60;2.00;;;18.60;1.00;;;;;;7350328;19;20014;-67
2022/10/06 13:20:38;;;;;;;3.60;1.40;;;18.50;1.00;;;;;;7351464;19;20022;-67
2022/10/06 13:23:24;;;;;;;5.53;1.70;;;18.50;1.00;;;;;;7350632;19;20062;-67
2022/10/06 13:25:59;;;;;;;7.70;1.58;;;17.90;1.00;;;;;;7354934;19;20014;-66
2022/10/06 13:28:33;;;;;;;7.07;1.70;;;18.10;1.00;;;;;;7351823;19;20016;-68
2022/10/06 13:31:11;;;;;;;4.88;1.40;;;18.40;1.00;;;;;;7350506;19;20014;-68
2022/10/06 13:33:45;;;;;;;4.20;1.50;;;18.60;1.00;;;;;;7350911;19;20007;-66
2022/10/06 13:36:18;;;;;;;13.30;2.72;;;18.70;1.00;;;;;;7350082;19;20018;-67
2022/10/06 13:38:48;;;;;;;5.25;1.40;;;18.60;1.00;;;;;;7372493;19;20447;-66
2022/10/06 13:41:28;;;;;;;5.18;1.33;;;18.40;1.00;;;;;;7348488;19;20062;-67